sensor_id;sensor_type;location;lat;lon;timestamp;P1;durP1;ratioP1;P2;durP2;ratioP2
9536;SDS011;4807;48.024;11.726;2022-12-11T00:02:58;23.13;;;14.03;;
9536;SDS011;4807;48.024;11.726;2022-12-11T00:06:07;20.83;;;13.00;;
9536;SDS011;4807;48.024;11.726;2022-12-11T00:09:18;23.67;;;13.17;;
9536;SDS011;4807;48.024;11.726;2022-12-11T00:12:29;17.53;;;11.40;;
9536;SDS011;4807;48.024;11.726;2022-12-11T00:15:38;19.57;;;12.13;;
9536;SDS011;4807;48.024;11.726;2022-12-11T00:18:46;22.17;;;11.70;;
9536;SDS011;4807;48.024;11.726;2022-12-11T00:21:54;22.50;;;12.00;;
9536;SDS011;4807;48.024;11.726;2022-12-11T00:25:03;18.97;;;11.90;;
9536;SDS011;4807;48.024;11.726;2022-12-11T00:28:15;21.77;;;13.13;;
9536;SDS011;4807;48.024;11.726;2022-12-11T00:31:24;23.97;;;13.17;;
9536;SDS011;4807;48.024;11.726;2022-12-11T00:34:32;23.90;;;12.97;;
9536;SDS011;4807;48.024;11.726;2022-12-11T00:37:41;25.23;;;14.47;;
9536;SDS011;4807;48.024;11.726;2022-12-11T00:40:49;23.07;;;12.73;;
9536;SDS011;4807;48.024;11.726;2022-12-11T00:43:59;22.47;;;12.87;;
9536;SDS011;4807;48.024;11.726;2022-12-11T00:47:08;25.40;;;12.53;;
9536;SDS011;4807;48.024;11.726;2022-12-11T00:50:16;23.63;;;13.83;;
9536;SDS011;4807;48.024;11.726;2022-12-11T00:53:25;23.63;;;12.23;;
9536;SDS011;4807;48.024;11.726;2022-12-11T00:56:34;22.83;;;12.63;;
9536;SDS011;4807;48.024;11.726;2022-12-11T00:59:43;23.13;;;12.57;;
9536;SDS011;4807;48.024;11.726;2022-12-11T01:02:52;22.70;;;12.63;;
9536;SDS011;4807;48.024;11.726;2022-12-11T01:06:00;20.73;;;12.60;;
9536;SDS011;4807;48.024;11.726;2022-12-11T01:09:08;21.27;;;11.73;;
9536;SDS011;4807;48.024;11.726;2022-12-11T01:12:34;17.87;;;11.17;;
9536;SDS011;4807;48.024;11.726;2022-12-11T01:15:44;19.13;;;12.37;;
9536;SDS011;4807;48.024;11.726;2022-12-11T01:18:53;19.93;;;12.23;;
9536;SDS011;4807;48.024;11.726;2022-12-11T01:22:01;23.70;;;12.03;;
9536;SDS011;4807;48.024;11.726;2022-12-11T01:25:09;19.53;;;12.20;;
9536;SDS011;4807;48.024;11.726;2022-12-11T01:28:18;21.97;;;12.03;;
9536;SDS011;4807;48.024;11.726;2022-12-11T01:31:28;22.57;;;11.73;;
9536;SDS011;4807;48.024;11.726;2022-12-11T01:34:36;20.07;;;12.00;;
9536;SDS011;4807;48.024;11.726;2022-12-11T01:37:45;19.63;;;11.80;;
9536;SDS011;4807;48.024;11.726;2022-12-11T01:40:53;18.67;;;11.63;;
9536;SDS011;4807;48.024;11.726;2022-12-11T01:44:04;20.60;;;11.87;;
9536;SDS011;4807;48.024;11.726;2022-12-11T01:47:16;18.10;;;10.93;;
9536;SDS011;4807;48.024;11.726;2022-12-11T01:50:25;19.23;;;11.53;;
9536;SDS011;4807;48.024;11.726;2022-12-11T01:53:36;19.00;;;11.77;;
9536;SDS011;4807;48.024;11.726;2022-12-11T01:56:50;15.97;;;9.90;;
9536;SDS011;4807;48.024;11.726;2022-12-11T02:00:04;16.20;;;10.07;;
9536;SDS011;4807;48.024;11.726;2022-12-11T02:03:19;17.53;;;9.83;;
9536;SDS011;4807;48.024;11.726;2022-12-11T02:06:29;17.17;;;11.17;;
9536;SDS011;4807;48.024;11.726;2022-12-11T02:09:42;19.83;;;11.57;;
9536;SDS011;4807;48.024;11.726;2022-12-11T02:12:56;19.37;;;10.10;;
9536;SDS011;4807;48.024;11.726;2022-12-11T02:16:15;19.70;;;10.47;;
9536;SDS011;4807;48.024;11.726;2022-12-11T02:19:45;18.33;;;10.20;;
9536;SDS011;4807;48.024;11.726;2022-12-11T02:27:08;15.93;;;9.37;;
9536;SDS011;4807;48.024;11.726;2022-12-11T02:30:31;18.10;;;9.67;;
9536;SDS011;4807;48.024;11.726;2022-12-11T02:33:44;15.67;;;9.30;;
9536;SDS011;4807;48.024;11.726;2022-12-11T02:37:00;14.23;;;8.70;;
9536;SDS011;4807;48.024;11.726;2022-12-11T02:40:15;13.53;;;8.77;;
9536;SDS011;4807;48.024;11.726;2022-12-11T02:43:31;16.60;;;9.87;;
9536;SDS011;4807;48.024;11.726;2022-12-11T02:46:44;17.60;;;10.13;;
9536;SDS011;4807;48.024;11.726;2022-12-11T02:49:53;15.37;;;9.50;;
9536;SDS011;4807;48.024;11.726;2022-12-11T02:53:06;14.97;;;8.90;;
9536;SDS011;4807;48.024;11.726;2022-12-11T02:56:20;17.97;;;9.43;;
9536;SDS011;4807;48.024;11.726;2022-12-11T02:59:39;16.70;;;9.87;;
9536;SDS011;4807;48.024;11.726;2022-12-11T03:02:53;16.47;;;10.17;;
9536;SDS011;4807;48.024;11.726;2022-12-11T03:06:01;15.40;;;9.50;;
9536;SDS011;4807;48.024;11.726;2022-12-11T03:12:46;16.07;;;9.27;;
9536;SDS011;4807;48.024;11.726;2022-12-11T03:16:03;14.57;;;9.07;;
9536;SDS011;4807;48.024;11.726;2022-12-11T03:19:31;13.43;;;8.57;;
9536;SDS011;4807;48.024;11.726;2022-12-11T03:22:45;15.57;;;9.57;;
9536;SDS011;4807;48.024;11.726;2022-12-11T03:26:01;14.87;;;9.30;;
9536;SDS011;4807;48.024;11.726;2022-12-11T03:29:14;15.30;;;8.67;;
9536;SDS011;4807;48.024;11.726;2022-12-11T03:32:28;17.73;;;9.23;;
9536;SDS011;4807;48.024;11.726;2022-12-11T03:35:47;16.43;;;9.60;;
9536;SDS011;4807;48.024;11.726;2022-12-11T03:39:02;14.40;;;8.57;;
9536;SDS011;4807;48.024;11.726;2022-12-11T03:42:16;12.53;;;8.77;;
9536;SDS011;4807;48.024;11.726;2022-12-11T03:45:29;15.37;;;8.63;;
9536;SDS011;4807;48.024;11.726;2022-12-11T03:48:40;12.27;;;7.53;;
9536;SDS011;4807;48.024;11.726;2022-12-11T03:51:54;13.20;;;8.33;;
9536;SDS011;4807;48.024;11.726;2022-12-11T03:55:07;15.87;;;8.97;;
9536;SDS011;4807;48.024;11.726;2022-12-11T03:58:18;12.87;;;7.43;;
9536;SDS011;4807;48.024;11.726;2022-12-11T04:01:27;13.57;;;7.57;;
9536;SDS011;4807;48.024;11.726;2022-12-11T04:04:35;8.57;;;6.70;;
9536;SDS011;4807;48.024;11.726;2022-12-11T04:07:45;11.23;;;7.53;;
9536;SDS011;4807;48.024;11.726;2022-12-11T04:10:53;13.83;;;8.67;;
9536;SDS011;4807;48.024;11.726;2022-12-11T04:14:15;14.27;;;8.37;;
9536;SDS011;4807;48.024;11.726;2022-12-11T04:17:41;10.97;;;7.37;;
9536;SDS011;4807;48.024;11.726;2022-12-11T04:21:07;13.07;;;8.13;;
9536;SDS011;4807;48.024;11.726;2022-12-11T04:24:35;12.33;;;8.63;;
9536;SDS011;4807;48.024;11.726;2022-12-11T04:27:43;12.13;;;8.57;;
9536;SDS011;4807;48.024;11.726;2022-12-11T04:30:58;12.37;;;8.03;;
9536;SDS011;4807;48.024;11.726;2022-12-11T04:34:07;12.23;;;8.50;;
9536;SDS011;4807;48.024;11.726;2022-12-11T04:37:15;11.57;;;8.00;;
9536;SDS011;4807;48.024;11.726;2022-12-11T04:40:25;13.10;;;7.73;;
9536;SDS011;4807;48.024;11.726;2022-12-11T04:43:33;12.43;;;8.83;;
9536;SDS011;4807;48.024;11.726;2022-12-11T04:46:42;12.03;;;7.63;;
9536;SDS011;4807;48.024;11.726;2022-12-11T04:49:51;24.57;;;16.93;;
9536;SDS011;4807;48.024;11.726;2022-12-11T04:52:59;16.57;;;9.37;;
9536;SDS011;4807;48.024;11.726;2022-12-11T04:56:09;12.50;;;7.90;;
9536;SDS011;4807;48.024;11.726;2022-12-11T04:59:20;15.47;;;9.77;;
9536;SDS011;4807;48.024;11.726;2022-12-11T05:02:29;16.30;;;9.83;;
9536;SDS011;4807;48.024;11.726;2022-12-11T05:05:45;14.63;;;9.50;;
9536;SDS011;4807;48.024;11.726;2022-12-11T05:08:56;28.80;;;17.33;;
9536;SDS011;4807;48.024;11.726;2022-12-11T05:12:05;14.37;;;9.10;;
9536;SDS011;4807;48.024;11.726;2022-12-11T05:15:14;10.47;;;6.77;;
9536;SDS011;4807;48.024;11.726;2022-12-11T05:18:23;13.43;;;7.87;;
9536;SDS011;4807;48.024;11.726;2022-12-11T05:21:32;13.40;;;8.53;;
9536;SDS011;4807;48.024;11.726;2022-12-11T05:24:40;15.20;;;7.93;;
9536;SDS011;4807;48.024;11.726;2022-12-11T05:27:50;15.03;;;8.83;;
9536;SDS011;4807;48.024;11.726;2022-12-11T05:30:59;18.90;;;12.00;;
9536;SDS011;4807;48.024;11.726;2022-12-11T05:34:11;11.67;;;8.00;;
9536;SDS011;4807;48.024;11.726;2022-12-11T05:37:20;13.73;;;8.57;;
9536;SDS011;4807;48.024;11.726;2022-12-11T05:40:29;14.60;;;8.87;;
9536;SDS011;4807;48.024;11.726;2022-12-11T05:43:38;13.40;;;8.40;;
9536;SDS011;4807;48.024;11.726;2022-12-11T05:46:47;12.47;;;8.10;;
9536;SDS011;4807;48.024;11.726;2022-12-11T05:49:56;15.23;;;7.77;;
9536;SDS011;4807;48.024;11.726;2022-12-11T05:53:04;14.90;;;8.57;;
9536;SDS011;4807;48.024;11.726;2022-12-11T05:56:12;11.93;;;8.03;;
9536;SDS011;4807;48.024;11.726;2022-12-11T05:59:24;16.13;;;8.67;;
9536;SDS011;4807;48.024;11.726;2022-12-11T06:02:33;11.20;;;7.33;;
9536;SDS011;4807;48.024;11.726;2022-12-11T06:05:42;16.63;;;8.03;;
9536;SDS011;4807;48.024;11.726;2022-12-11T06:08:50;15.63;;;7.87;;
9536;SDS011;4807;48.024;11.726;2022-12-11T06:11:59;13.33;;;8.07;;
9536;SDS011;4807;48.024;11.726;2022-12-11T06:15:09;15.57;;;8.87;;
9536;SDS011;4807;48.024;11.726;2022-12-11T06:18:17;12.10;;;7.27;;
9536;SDS011;4807;48.024;11.726;2022-12-11T06:21:27;15.00;;;8.63;;
9536;SDS011;4807;48.024;11.726;2022-12-11T06:24:37;12.53;;;7.63;;
9536;SDS011;4807;48.024;11.726;2022-12-11T06:27:45;10.07;;;7.57;;
9536;SDS011;4807;48.024;11.726;2022-12-11T06:30:55;9.53;;;5.97;;
9536;SDS011;4807;48.024;11.726;2022-12-11T06:34:05;8.37;;;5.57;;
9536;SDS011;4807;48.024;11.726;2022-12-11T06:37:15;9.43;;;5.33;;
9536;SDS011;4807;48.024;11.726;2022-12-11T06:40:23;10.17;;;6.40;;
9536;SDS011;4807;48.024;11.726;2022-12-11T06:43:31;9.70;;;6.43;;
9536;SDS011;4807;48.024;11.726;2022-12-11T06:46:41;10.67;;;6.13;;
9536;SDS011;4807;48.024;11.726;2022-12-11T06:49:50;13.77;;;10.43;;
9536;SDS011;4807;48.024;11.726;2022-12-11T06:52:58;12.07;;;7.67;;
9536;SDS011;4807;48.024;11.726;2022-12-11T06:56:07;11.17;;;7.63;;
9536;SDS011;4807;48.024;11.726;2022-12-11T06:59:19;12.20;;;6.63;;
9536;SDS011;4807;48.024;11.726;2022-12-11T07:02:29;8.93;;;6.37;;
9536;SDS011;4807;48.024;11.726;2022-12-11T07:05:37;11.47;;;7.07;;
9536;SDS011;4807;48.024;11.726;2022-12-11T07:08:45;12.00;;;7.00;;
9536;SDS011;4807;48.024;11.726;2022-12-11T07:11:53;9.67;;;6.73;;
9536;SDS011;4807;48.024;11.726;2022-12-11T07:15:02;12.00;;;7.27;;
9536;SDS011;4807;48.024;11.726;2022-12-11T07:18:16;17.33;;;8.20;;
9536;SDS011;4807;48.024;11.726;2022-12-11T07:21:24;12.03;;;7.73;;
9536;SDS011;4807;48.024;11.726;2022-12-11T07:24:32;12.80;;;7.90;;
9536;SDS011;4807;48.024;11.726;2022-12-11T07:27:40;12.80;;;7.50;;
9536;SDS011;4807;48.024;11.726;2022-12-11T07:30:49;10.43;;;7.47;;
9536;SDS011;4807;48.024;11.726;2022-12-11T07:33:59;9.80;;;6.33;;
9536;SDS011;4807;48.024;11.726;2022-12-11T07:37:12;12.07;;;7.23;;
9536;SDS011;4807;48.024;11.726;2022-12-11T07:40:20;11.60;;;6.67;;
9536;SDS011;4807;48.024;11.726;2022-12-11T07:43:29;10.33;;;6.50;;
9536;SDS011;4807;48.024;11.726;2022-12-11T07:46:38;9.43;;;6.57;;
9536;SDS011;4807;48.024;11.726;2022-12-11T07:49:48;9.73;;;6.13;;
9536;SDS011;4807;48.024;11.726;2022-12-11T07:52:56;13.90;;;6.37;;
9536;SDS011;4807;48.024;11.726;2022-12-11T07:56:05;10.40;;;6.20;;
9536;SDS011;4807;48.024;11.726;2022-12-11T07:59:14;8.57;;;5.97;;
9536;SDS011;4807;48.024;11.726;2022-12-11T08:02:23;10.60;;;6.07;;
9536;SDS011;4807;48.024;11.726;2022-12-11T08:05:33;10.03;;;6.47;;
9536;SDS011;4807;48.024;11.726;2022-12-11T08:08:41;9.60;;;6.07;;
9536;SDS011;4807;48.024;11.726;2022-12-11T08:11:50;8.73;;;6.07;;
9536;SDS011;4807;48.024;11.726;2022-12-11T08:14:59;10.00;;;6.73;;
9536;SDS011;4807;48.024;11.726;2022-12-11T08:18:07;12.43;;;6.77;;
9536;SDS011;4807;48.024;11.726;2022-12-11T08:21:18;9.50;;;6.53;;
9536;SDS011;4807;48.024;11.726;2022-12-11T08:24:28;12.13;;;7.07;;
9536;SDS011;4807;48.024;11.726;2022-12-11T08:27:36;10.53;;;6.17;;
9536;SDS011;4807;48.024;11.726;2022-12-11T08:30:44;8.60;;;6.17;;
9536;SDS011;4807;48.024;11.726;2022-12-11T08:33:53;11.23;;;6.20;;
9536;SDS011;4807;48.024;11.726;2022-12-11T08:37:04;11.93;;;7.73;;
9536;SDS011;4807;48.024;11.726;2022-12-11T08:40:12;9.10;;;7.03;;
9536;SDS011;4807;48.024;11.726;2022-12-11T08:43:20;12.03;;;7.43;;
9536;SDS011;4807;48.024;11.726;2022-12-11T08:46:29;11.03;;;7.10;;
9536;SDS011;4807;48.024;11.726;2022-12-11T08:49:39;10.60;;;7.10;;
9536;SDS011;4807;48.024;11.726;2022-12-11T08:52:48;11.07;;;6.87;;
9536;SDS011;4807;48.024;11.726;2022-12-11T08:55:59;11.70;;;7.17;;
9536;SDS011;4807;48.024;11.726;2022-12-11T08:59:08;11.13;;;7.20;;
9536;SDS011;4807;48.024;11.726;2022-12-11T09:02:16;11.30;;;6.87;;
9536;SDS011;4807;48.024;11.726;2022-12-11T09:05:25;12.03;;;7.23;;
9536;SDS011;4807;48.024;11.726;2022-12-11T09:08:34;11.43;;;7.10;;
9536;SDS011;4807;48.024;11.726;2022-12-11T09:11:43;12.20;;;7.40;;
9536;SDS011;4807;48.024;11.726;2022-12-11T09:14:51;9.70;;;7.17;;
9536;SDS011;4807;48.024;11.726;2022-12-11T09:18:00;9.80;;;7.17;;
9536;SDS011;4807;48.024;11.726;2022-12-11T09:21:09;14.47;;;7.60;;
9536;SDS011;4807;48.024;11.726;2022-12-11T09:24:22;15.47;;;8.53;;
9536;SDS011;4807;48.024;11.726;2022-12-11T09:27:31;14.97;;;8.90;;
9536;SDS011;4807;48.024;11.726;2022-12-11T09:30:41;11.00;;;8.80;;
9536;SDS011;4807;48.024;11.726;2022-12-11T09:33:49;13.63;;;9.03;;
9536;SDS011;4807;48.024;11.726;2022-12-11T09:37:01;10.17;;;5.97;;
9536;SDS011;4807;48.024;11.726;2022-12-11T09:40:11;9.07;;;6.50;;
9536;SDS011;4807;48.024;11.726;2022-12-11T09:43:24;9.67;;;5.47;;
9536;SDS011;4807;48.024;11.726;2022-12-11T09:46:44;10.33;;;6.00;;
9536;SDS011;4807;48.024;11.726;2022-12-11T09:49:56;11.53;;;6.83;;
9536;SDS011;4807;48.024;11.726;2022-12-11T09:53:14;10.20;;;5.43;;
9536;SDS011;4807;48.024;11.726;2022-12-11T09:56:31;13.07;;;8.50;;
9536;SDS011;4807;48.024;11.726;2022-12-11T09:59:50;12.40;;;6.63;;
9536;SDS011;4807;48.024;11.726;2022-12-11T10:07:13;13.83;;;7.23;;
9536;SDS011;4807;48.024;11.726;2022-12-11T10:10:37;11.90;;;7.50;;
9536;SDS011;4807;48.024;11.726;2022-12-11T10:13:55;8.10;;;5.33;;
9536;SDS011;4807;48.024;11.726;2022-12-11T10:17:18;6.10;;;4.23;;
9536;SDS011;4807;48.024;11.726;2022-12-11T10:20:34;9.33;;;5.67;;
9536;SDS011;4807;48.024;11.726;2022-12-11T10:23:49;7.73;;;5.90;;
9536;SDS011;4807;48.024;11.726;2022-12-11T10:27:11;7.87;;;4.43;;
9536;SDS011;4807;48.024;11.726;2022-12-11T10:30:26;4.03;;;3.23;;
9536;SDS011;4807;48.024;11.726;2022-12-11T10:33:47;6.33;;;3.87;;
9536;SDS011;4807;48.024;11.726;2022-12-11T10:37:05;7.33;;;4.13;;
9536;SDS011;4807;48.024;11.726;2022-12-11T10:40:13;6.23;;;3.90;;
9536;SDS011;4807;48.024;11.726;2022-12-11T10:43:31;6.70;;;4.20;;
9536;SDS011;4807;48.024;11.726;2022-12-11T10:46:44;5.80;;;3.47;;
9536;SDS011;4807;48.024;11.726;2022-12-11T10:49:56;8.50;;;4.50;;
9536;SDS011;4807;48.024;11.726;2022-12-11T10:53:16;6.90;;;4.13;;
9536;SDS011;4807;48.024;11.726;2022-12-11T10:56:28;5.83;;;4.37;;
9536;SDS011;4807;48.024;11.726;2022-12-11T10:59:43;7.23;;;4.53;;
9536;SDS011;4807;48.024;11.726;2022-12-11T11:02:57;9.07;;;5.40;;
9536;SDS011;4807;48.024;11.726;2022-12-11T11:06:13;9.27;;;6.93;;
9536;SDS011;4807;48.024;11.726;2022-12-11T11:09:27;9.00;;;5.43;;
9536;SDS011;4807;48.024;11.726;2022-12-11T11:12:38;9.00;;;5.90;;
9536;SDS011;4807;48.024;11.726;2022-12-11T11:15:49;6.47;;;4.20;;
9536;SDS011;4807;48.024;11.726;2022-12-11T11:19:13;6.27;;;4.60;;
9536;SDS011;4807;48.024;11.726;2022-12-11T11:22:29;7.30;;;4.60;;
9536;SDS011;4807;48.024;11.726;2022-12-11T11:25:39;6.50;;;4.70;;
9536;SDS011;4807;48.024;11.726;2022-12-11T11:28:57;9.30;;;6.30;;
9536;SDS011;4807;48.024;11.726;2022-12-11T11:32:12;6.17;;;4.40;;
9536;SDS011;4807;48.024;11.726;2022-12-11T11:35:28;10.33;;;5.47;;
9536;SDS011;4807;48.024;11.726;2022-12-11T11:38:39;7.20;;;5.03;;
9536;SDS011;4807;48.024;11.726;2022-12-11T11:41:55;6.20;;;3.80;;
9536;SDS011;4807;48.024;11.726;2022-12-11T11:45:16;7.37;;;4.77;;
9536;SDS011;4807;48.024;11.726;2022-12-11T11:48:33;5.07;;;3.63;;
9536;SDS011;4807;48.024;11.726;2022-12-11T11:51:54;6.70;;;4.13;;
9536;SDS011;4807;48.024;11.726;2022-12-11T11:55:13;8.83;;;5.67;;
9536;SDS011;4807;48.024;11.726;2022-12-11T11:58:30;5.50;;;3.80;;
9536;SDS011;4807;48.024;11.726;2022-12-11T12:01:48;6.30;;;5.17;;
9536;SDS011;4807;48.024;11.726;2022-12-11T12:05:00;5.17;;;3.93;;
9536;SDS011;4807;48.024;11.726;2022-12-11T12:08:12;5.17;;;4.00;;
9536;SDS011;4807;48.024;11.726;2022-12-11T12:11:37;10.73;;;4.60;;
9536;SDS011;4807;48.024;11.726;2022-12-11T12:18:32;6.07;;;3.43;;
9536;SDS011;4807;48.024;11.726;2022-12-11T12:21:54;7.57;;;4.47;;
9536;SDS011;4807;48.024;11.726;2022-12-11T12:25:09;5.00;;;3.97;;
9536;SDS011;4807;48.024;11.726;2022-12-11T12:28:30;5.90;;;4.17;;
9536;SDS011;4807;48.024;11.726;2022-12-11T12:32:01;8.37;;;4.33;;
9536;SDS011;4807;48.024;11.726;2022-12-11T12:35:27;7.10;;;4.70;;
9536;SDS011;4807;48.024;11.726;2022-12-11T12:38:43;7.23;;;4.93;;
9536;SDS011;4807;48.024;11.726;2022-12-11T12:42:04;6.57;;;4.70;;
9536;SDS011;4807;48.024;11.726;2022-12-11T12:45:25;7.07;;;4.70;;
9536;SDS011;4807;48.024;11.726;2022-12-11T12:48:38;7.23;;;4.93;;
9536;SDS011;4807;48.024;11.726;2022-12-11T12:51:47;7.57;;;5.37;;
9536;SDS011;4807;48.024;11.726;2022-12-11T12:54:59;6.47;;;3.87;;
9536;SDS011;4807;48.024;11.726;2022-12-11T12:58:24;7.07;;;4.47;;
9536;SDS011;4807;48.024;11.726;2022-12-11T13:01:36;3.77;;;3.33;;
9536;SDS011;4807;48.024;11.726;2022-12-11T13:04:54;6.50;;;4.03;;
9536;SDS011;4807;48.024;11.726;2022-12-11T13:08:06;5.07;;;3.37;;
9536;SDS011;4807;48.024;11.726;2022-12-11T13:11:18;5.50;;;3.60;;
9536;SDS011;4807;48.024;11.726;2022-12-11T13:14:40;4.70;;;3.37;;
9536;SDS011;4807;48.024;11.726;2022-12-11T13:17:48;4.10;;;3.30;;
9536;SDS011;4807;48.024;11.726;2022-12-11T13:20:58;5.13;;;3.67;;
9536;SDS011;4807;48.024;11.726;2022-12-11T13:24:14;6.87;;;5.30;;
9536;SDS011;4807;48.024;11.726;2022-12-11T13:27:35;7.50;;;5.77;;
9536;SDS011;4807;48.024;11.726;2022-12-11T13:30:56;6.67;;;4.77;;
9536;SDS011;4807;48.024;11.726;2022-12-11T13:34:14;4.93;;;3.70;;
9536;SDS011;4807;48.024;11.726;2022-12-11T13:37:28;5.60;;;3.73;;
9536;SDS011;4807;48.024;11.726;2022-12-11T13:40:41;5.73;;;3.90;;
9536;SDS011;4807;48.024;11.726;2022-12-11T13:43:53;5.97;;;4.57;;
9536;SDS011;4807;48.024;11.726;2022-12-11T13:47:06;6.57;;;4.47;;
9536;SDS011;4807;48.024;11.726;2022-12-11T13:50:23;7.10;;;4.03;;
9536;SDS011;4807;48.024;11.726;2022-12-11T13:53:36;7.73;;;4.20;;
9536;SDS011;4807;48.024;11.726;2022-12-11T13:56:54;5.70;;;3.60;;
9536;SDS011;4807;48.024;11.726;2022-12-11T14:00:17;5.53;;;3.97;;
9536;SDS011;4807;48.024;11.726;2022-12-11T14:03:30;4.70;;;3.53;;
9536;SDS011;4807;48.024;11.726;2022-12-11T14:06:40;11.23;;;4.23;;
9536;SDS011;4807;48.024;11.726;2022-12-11T14:09:49;6.23;;;4.40;;
9536;SDS011;4807;48.024;11.726;2022-12-11T14:13:00;4.90;;;4.03;;
9536;SDS011;4807;48.024;11.726;2022-12-11T14:16:13;5.80;;;4.47;;
9536;SDS011;4807;48.024;11.726;2022-12-11T14:19:31;5.63;;;4.20;;
9536;SDS011;4807;48.024;11.726;2022-12-11T14:22:40;7.47;;;4.23;;
9536;SDS011;4807;48.024;11.726;2022-12-11T14:25:50;13.47;;;9.53;;
9536;SDS011;4807;48.024;11.726;2022-12-11T14:29:00;8.13;;;5.27;;
9536;SDS011;4807;48.024;11.726;2022-12-11T14:32:12;5.77;;;4.97;;
9536;SDS011;4807;48.024;11.726;2022-12-11T14:35:31;6.70;;;4.23;;
9536;SDS011;4807;48.024;11.726;2022-12-11T14:38:45;6.90;;;4.57;;
9536;SDS011;4807;48.024;11.726;2022-12-11T14:41:59;7.83;;;4.70;;
9536;SDS011;4807;48.024;11.726;2022-12-11T14:45:15;10.70;;;5.97;;
9536;SDS011;4807;48.024;11.726;2022-12-11T14:48:31;8.73;;;5.03;;
9536;SDS011;4807;48.024;11.726;2022-12-11T14:51:52;6.67;;;4.77;;
9536;SDS011;4807;48.024;11.726;2022-12-11T14:55:06;6.63;;;4.90;;
9536;SDS011;4807;48.024;11.726;2022-12-11T14:58:23;10.93;;;6.07;;
9536;SDS011;4807;48.024;11.726;2022-12-11T15:01:34;12.47;;;7.50;;
9536;SDS011;4807;48.024;11.726;2022-12-11T15:04:45;9.53;;;6.40;;
9536;SDS011;4807;48.024;11.726;2022-12-11T15:08:24;12.77;;;7.93;;
9536;SDS011;4807;48.024;11.726;2022-12-11T15:11:35;11.13;;;7.67;;
9536;SDS011;4807;48.024;11.726;2022-12-11T15:14:45;10.80;;;7.30;;
9536;SDS011;4807;48.024;11.726;2022-12-11T15:17:59;7.13;;;5.67;;
9536;SDS011;4807;48.024;11.726;2022-12-11T15:21:26;7.43;;;6.10;;
9536;SDS011;4807;48.024;11.726;2022-12-11T15:24:39;9.20;;;6.40;;
9536;SDS011;4807;48.024;11.726;2022-12-11T15:27:52;8.17;;;6.60;;
9536;SDS011;4807;48.024;11.726;2022-12-11T15:31:03;8.73;;;6.60;;
9536;SDS011;4807;48.024;11.726;2022-12-11T15:34:32;8.90;;;6.97;;
9536;SDS011;4807;48.024;11.726;2022-12-11T15:37:50;9.10;;;6.53;;
9536;SDS011;4807;48.024;11.726;2022-12-11T15:41:02;7.97;;;5.40;;
9536;SDS011;4807;48.024;11.726;2022-12-11T15:44:15;8.63;;;5.33;;
9536;SDS011;4807;48.024;11.726;2022-12-11T15:47:29;11.63;;;7.50;;
9536;SDS011;4807;48.024;11.726;2022-12-11T15:50:38;9.87;;;6.77;;
9536;SDS011;4807;48.024;11.726;2022-12-11T15:53:46;10.33;;;6.97;;
9536;SDS011;4807;48.024;11.726;2022-12-11T15:56:57;11.20;;;6.67;;
9536;SDS011;4807;48.024;11.726;2022-12-11T16:00:13;17.63;;;10.83;;
9536;SDS011;4807;48.024;11.726;2022-12-11T16:03:24;21.23;;;11.50;;
9536;SDS011;4807;48.024;11.726;2022-12-11T16:06:33;17.70;;;11.13;;
9536;SDS011;4807;48.024;11.726;2022-12-11T16:09:42;19.70;;;10.30;;
9536;SDS011;4807;48.024;11.726;2022-12-11T16:12:53;16.70;;;11.03;;
9536;SDS011;4807;48.024;11.726;2022-12-11T16:16:05;15.73;;;10.20;;
9536;SDS011;4807;48.024;11.726;2022-12-11T16:19:14;16.33;;;10.63;;
9536;SDS011;4807;48.024;11.726;2022-12-11T16:22:23;15.17;;;9.83;;
9536;SDS011;4807;48.024;11.726;2022-12-11T16:25:32;18.53;;;10.80;;
9536;SDS011;4807;48.024;11.726;2022-12-11T16:28:44;15.53;;;10.17;;
9536;SDS011;4807;48.024;11.726;2022-12-11T16:31:55;12.33;;;8.13;;
9536;SDS011;4807;48.024;11.726;2022-12-11T16:35:04;12.57;;;7.73;;
9536;SDS011;4807;48.024;11.726;2022-12-11T16:38:13;11.50;;;7.73;;
9536;SDS011;4807;48.024;11.726;2022-12-11T16:41:21;13.67;;;8.57;;
9536;SDS011;4807;48.024;11.726;2022-12-11T16:44:32;11.90;;;7.90;;
9536;SDS011;4807;48.024;11.726;2022-12-11T16:47:49;12.83;;;7.70;;
9536;SDS011;4807;48.024;11.726;2022-12-11T16:50:58;13.40;;;7.27;;
9536;SDS011;4807;48.024;11.726;2022-12-11T16:54:07;11.87;;;8.67;;
9536;SDS011;4807;48.024;11.726;2022-12-11T16:57:15;11.70;;;8.03;;
9536;SDS011;4807;48.024;11.726;2022-12-11T17:00:25;14.47;;;8.67;;
9536;SDS011;4807;48.024;11.726;2022-12-11T17:03:34;20.47;;;12.53;;
9536;SDS011;4807;48.024;11.726;2022-12-11T17:06:43;10.93;;;9.37;;
9536;SDS011;4807;48.024;11.726;2022-12-11T17:09:51;17.70;;;11.10;;
9536;SDS011;4807;48.024;11.726;2022-12-11T17:13:01;17.37;;;10.97;;
9536;SDS011;4807;48.024;11.726;2022-12-11T17:16:13;32.90;;;17.10;;
9536;SDS011;4807;48.024;11.726;2022-12-11T17:19:23;26.70;;;14.43;;
9536;SDS011;4807;48.024;11.726;2022-12-11T17:22:32;24.10;;;13.87;;
9536;SDS011;4807;48.024;11.726;2022-12-11T17:25:42;51.00;;;24.70;;
9536;SDS011;4807;48.024;11.726;2022-12-11T17:28:52;49.63;;;20.80;;
9536;SDS011;4807;48.024;11.726;2022-12-11T17:32:08;43.40;;;21.53;;
9536;SDS011;4807;48.024;11.726;2022-12-11T17:35:17;35.97;;;15.40;;
9536;SDS011;4807;48.024;11.726;2022-12-11T17:38:25;29.20;;;15.10;;
9536;SDS011;4807;48.024;11.726;2022-12-11T17:41:35;13.17;;;7.87;;
9536;SDS011;4807;48.024;11.726;2022-12-11T17:44:44;18.37;;;11.33;;
9536;SDS011;4807;48.024;11.726;2022-12-11T17:47:55;13.90;;;7.97;;
9536;SDS011;4807;48.024;11.726;2022-12-11T17:51:04;14.00;;;8.27;;
9536;SDS011;4807;48.024;11.726;2022-12-11T17:54:15;13.33;;;7.37;;
9536;SDS011;4807;48.024;11.726;2022-12-11T17:57:24;11.07;;;7.23;;
9536;SDS011;4807;48.024;11.726;2022-12-11T18:00:32;10.67;;;6.37;;
9536;SDS011;4807;48.024;11.726;2022-12-11T18:03:43;10.27;;;6.47;;
9536;SDS011;4807;48.024;11.726;2022-12-11T18:06:52;11.03;;;6.90;;
9536;SDS011;4807;48.024;11.726;2022-12-11T18:10:01;12.03;;;7.50;;
9536;SDS011;4807;48.024;11.726;2022-12-11T18:13:10;10.53;;;6.67;;
9536;SDS011;4807;48.024;11.726;2022-12-11T18:16:20;8.90;;;6.00;;
9536;SDS011;4807;48.024;11.726;2022-12-11T18:19:33;11.33;;;6.70;;
9536;SDS011;4807;48.024;11.726;2022-12-11T18:22:44;8.57;;;6.07;;
9536;SDS011;4807;48.024;11.726;2022-12-11T18:25:52;13.67;;;6.90;;
9536;SDS011;4807;48.024;11.726;2022-12-11T18:29:01;11.63;;;6.87;;
9536;SDS011;4807;48.024;11.726;2022-12-11T18:32:09;12.10;;;6.53;;
9536;SDS011;4807;48.024;11.726;2022-12-11T18:35:19;9.57;;;6.87;;
9536;SDS011;4807;48.024;11.726;2022-12-11T18:38:27;9.20;;;5.93;;
9536;SDS011;4807;48.024;11.726;2022-12-11T18:41:36;10.13;;;6.27;;
9536;SDS011;4807;48.024;11.726;2022-12-11T18:44:45;11.47;;;7.87;;
9536;SDS011;4807;48.024;11.726;2022-12-11T18:47:53;15.87;;;8.43;;
9536;SDS011;4807;48.024;11.726;2022-12-11T18:51:06;10.20;;;7.23;;
9536;SDS011;4807;48.024;11.726;2022-12-11T18:54:17;11.47;;;8.10;;
9536;SDS011;4807;48.024;11.726;2022-12-11T18:57:25;9.90;;;6.93;;
9536;SDS011;4807;48.024;11.726;2022-12-11T19:00:35;16.10;;;8.27;;
9536;SDS011;4807;48.024;11.726;2022-12-11T19:03:46;10.87;;;7.37;;
9536;SDS011;4807;48.024;11.726;2022-12-11T19:06:59;10.27;;;6.17;;
9536;SDS011;4807;48.024;11.726;2022-12-11T19:10:08;9.90;;;7.13;;
9536;SDS011;4807;48.024;11.726;2022-12-11T19:13:16;12.37;;;7.83;;
9536;SDS011;4807;48.024;11.726;2022-12-11T19:16:26;12.00;;;7.03;;
9536;SDS011;4807;48.024;11.726;2022-12-11T19:19:39;12.33;;;7.13;;
9536;SDS011;4807;48.024;11.726;2022-12-11T19:22:50;13.53;;;8.37;;
9536;SDS011;4807;48.024;11.726;2022-12-11T19:25:58;13.47;;;8.10;;
9536;SDS011;4807;48.024;11.726;2022-12-11T19:29:07;13.37;;;6.47;;
9536;SDS011;4807;48.024;11.726;2022-12-11T19:32:29;10.10;;;6.13;;
9536;SDS011;4807;48.024;11.726;2022-12-11T19:35:42;11.00;;;7.20;;
9536;SDS011;4807;48.024;11.726;2022-12-11T19:38:52;9.70;;;5.63;;